Airfield :
LOGIN :

Register | Disclaimer

   EN    FR    IT 

 










Legend :    VFR   Marginal VFR   IFR   Intensive IFR   Very Intensive IFR
Visi :
Ceiling :
>= 8 km
>= 3000ft
5 to 8 km
1000 to 3000 ft
1500m to 5 km
500 to 1000 ft
800 to 1500m
200 to 500 ft
< 800m
< 200 ft
Symbols :   Thunderstorms  Fog  Heavy snow  Heavy precipitations  Wind > 20 kt
SIGMETs :     Misc.  Thunderstorms  Icing  Turbulence  Mountain Waves  Volcanic Ashes







- Airport Elevation : 1470 ft


LSMD - Dubendorf Military

CURRENT METAR :
  • 260720Z VRB02KT 7000 RA FEW028 BKN037 06/06 Q1016 RMK WHT

EXPIRED METARs :
  • 260650Z 00000KT 7000 RA FEW027 BKN038 06/06 Q1015 RMK WHT
  • 260620Z 24004KT 200V260 7000 -RA BKN037 06/05 Q1015 RMK WHT
  • 260550Z 25003KT 210V320 6000 RA FEW012 OVC034 06/05 Q1015 RMK WHT
  • 260520Z 26008KT 220V290 6000 RA FEW019 BKN033 06/06 Q1015 RERA RMK WHT
  • 260450Z 26007KT 190V290 7000 RA FEW013 SCT018 BKN028 07/06 Q1014 RERA RMK WHT

Expired Forecast.
No reported NOTAMs for that airfield.
2 SIGMETs reported for the Switzerland FIR (LSAS) :
 
Embedded thunderstorms
LSAS SIGMET 4 VALID 260700/260900 LSZH
LSAS SWITZERLAND FIR/UIR EMBD TS OBS WI N4641 E00836 - N4635 E00933 - N4545 E00902 - N4618 E00815 - N4641 E00836 TOP FL240 STNR NC=
Severe turbulence
LSAS SIGMET 3 VALID 260550/260750 LSZH
LSAS SWITZERLAND FIR SEV TURB OBS WI N4632 E00740 - N4618 E00816 - N4557 E00805 - N4550 E00704 - N4611 E00643 - N4632 E00740 FL200/300 STNR WKN=



MET'MAP, your aeronautical weather chart ! - Copyright ORBIFLY December 2007 - Disclaimer

ORBIFLY MET'MAP TEAM :

Programming & Development : Alexandra Zaïnal
Concept & Development : Baudouin d'Aumeries
Co-Development & Prog : Marc-Olivier Méhu
Technical & hardware support : Manuel Goepfert

Contact : metmap@orbifly.com




SOURCES & CREDITS :

   NOAA